Time;durP1;ratioP1;P1;durP2;ratioP2;P2;SDS_P1;SDS_P2;PMS_P1;PMS_P2;Temp;Humidity;BMP_temperature;BMP_pressure;BME280_temperature;BME280_humidity;BME280_pressure;Samples;Min_cycle;Max_cycle;Signal;HPM_P1;HPM_P2
2024/04/17 00:00:20;;;;;;;8.02;5.93;;;;;;;8.71;64.19;98012.28;4315461;33;34385;-89
2024/04/17 00:02:47;;;;;;;7.72;5.80;;;;;;;8.63;64.09;98007.94;4316365;33;33241;-88
2024/04/17 00:05:13;;;;;;;8.77;6.35;;;;;;;8.54;64.23;98003.63;4301724;33;33514;-89
2024/04/17 00:07:39;;;;;;;10.07;5.97;;;;;;;8.43;64.28;97995.84;4302005;33;33788;-89
2024/04/17 00:10:06;;;;;;;9.77;5.75;;;;;;;8.46;64.18;98005.34;4308791;33;33780;-88
2024/04/17 00:12:33;;;;;;;9.40;5.95;;;;;;;8.45;64.09;98006.19;4311416;33;34532;-88
2024/04/17 00:14:59;;;;;;;8.80;5.60;;;;;;;8.48;63.57;97996.72;4301579;33;33915;-87
2024/04/17 00:17:26;;;;;;;8.70;5.75;;;;;;;8.28;63.92;97988.87;4301644;33;34121;-87
2024/04/17 00:19:52;;;;;;;9.55;6.00;;;;;;;8.33;63.66;97991.47;4306507;33;33782;-86
2024/04/17 00:22:20;;;;;;;9.48;5.93;;;;;;;8.28;63.88;97986.31;4316257;33;34498;-87
2024/04/17 00:24:46;;;;;;;9.65;6.05;;;;;;;8.35;63.97;97988.91;4314920;33;34691;-87
2024/04/17 00:27:13;;;;;;;10.95;7.28;;;;;;;8.23;64.75;97974.25;4315716;33;33932;-85
2024/04/17 00:29:39;;;;;;;8.77;6.05;;;;;;;8.17;65.72;97969.91;4314352;33;34921;-85
2024/04/17 00:32:07;;;;;;;11.02;7.10;;;;;;;7.93;67.43;97972.44;4315959;33;34609;-88
2024/04/17 00:34:34;;;;;;;10.05;7.32;;;;;;;8.43;66.15;97966.59;4315171;33;34623;-88
2024/04/17 00:37:01;;;;;;;12.55;7.68;;;;;;;7.75;68.67;97949.97;4308240;33;33723;-88
2024/04/17 00:39:28;;;;;;;13.70;7.85;;;;;;;8.01;67.76;97942.34;4300332;33;34820;-88
2024/04/17 00:41:54;;;;;;;9.02;6.78;;;;;;;7.73;69.09;97938.81;4301651;33;33239;-88
2024/04/17 00:44:21;;;;;;;11.63;7.22;;;;;;;7.66;69.69;97935.34;4303701;33;34693;-88
2024/04/17 00:46:48;;;;;;;11.52;7.75;;;;;;;7.81;69.13;97921.63;4315594;33;33897;-87
2024/04/17 00:49:15;;;;;;;13.43;8.10;;;;;;;7.60;69.85;97929.28;4300506;33;35010;-89
2024/04/17 00:51:42;;;;;;;16.27;8.63;;;;;;;7.12;71.82;97917.81;4301743;33;33766;-88
2024/04/17 00:54:09;;;;;;;14.98;8.18;;;;;;;7.19;71.78;97917.88;4300117;33;33949;-87
2024/04/17 00:56:35;;;;;;;12.48;7.00;;;;;;;7.14;71.80;97909.25;4316110;33;34181;-88
2024/04/17 00:59:02;;;;;;;11.70;6.95;;;;;;;7.32;70.86;97919.69;4311616;33;34916;-89
2024/04/17 01:01:29;;;;;;;13.90;7.50;;;;;;;7.26;71.33;97922.22;4315783;33;33658;-88
2024/04/17 01:03:55;;;;;;;15.35;7.05;;;;;;;7.53;70.16;97918.06;4311507;33;100364;-88
2024/04/17 01:06:22;;;;;;;10.05;6.95;;;;;;;7.30;71.05;97913.66;4315234;33;34123;-90
2024/04/17 01:08:49;;;;;;;13.27;7.47;;;;;;;7.19;70.86;97902.41;4302544;33;33947;-88
2024/04/17 01:11:15;;;;;;;10.93;6.70;;;;;;;6.95;72.01;97903.13;4316101;33;33738;-89
2024/04/17 01:13:42;;;;;;;9.80;6.75;;;;;;;7.05;71.91;97898.91;4311620;33;33789;-89
2024/04/17 01:16:08;;;;;;;11.38;6.97;;;;;;;6.81;72.32;97890.13;4301149;33;34622;-88
2024/04/17 01:18:36;;;;;;;10.10;6.57;;;;;;;6.83;72.28;97879.88;4301208;33;34136;-89
2024/04/17 01:21:03;;;;;;;9.70;6.80;;;;;;;6.75;72.77;97876.38;4300949;33;33502;-88
2024/04/17 01:23:30;;;;;;;10.13;5.87;;;;;;;6.36;74.27;97882.06;4300915;33;34308;-87
2024/04/17 01:25:56;;;;;;;9.77;6.57;;;;;;;6.68;73.42;97879.75;4306737;33;34112;-88
2024/04/17 01:28:23;;;;;;;9.15;6.03;;;;;;;6.40;74.27;97891.53;4314907;33;35017;-89
2024/04/17 01:30:50;;;;;;;9.57;6.15;;;;;;;6.96;72.04;97883.38;4315483;33;34043;-89
2024/04/17 01:33:17;;;;;;;11.48;6.90;;;;;;;6.87;72.18;97875.59;4314605;33;34526;-87
2024/04/17 01:35:43;;;;;;;12.45;6.07;;;;;;;6.32;74.42;97869.16;4310344;33;33917;-88
2024/04/17 01:38:10;;;;;;;11.00;6.75;;;;;;;6.76;73.14;97866.06;4312343;33;34923;-88
2024/04/17 01:40:37;;;;;;;11.10;5.60;;;;;;;7.05;72.04;97865.41;4300440;33;33232;-86
2024/04/17 01:43:03;;;;;;;9.40;5.47;;;;;;;7.36;70.52;97852.69;4316861;33;34588;-87
2024/04/17 01:45:30;;;;;;;8.95;5.30;;;;;;;7.24;70.96;97858.63;4311253;33;34276;-89
2024/04/17 01:47:56;;;;;;;8.02;5.47;;;;;;;7.22;70.70;97853.47;4317220;33;33666;-88
2024/04/17 01:50:27;;;;;;;9.05;5.55;;;;;;;7.39;70.18;97847.53;4317372;33;33165;-88
2024/04/17 01:52:54;;;;;;;8.32;4.60;;;;;;;7.36;69.84;97848.38;4316190;33;33968;-88
2024/04/17 01:55:21;;;;;;;6.95;4.47;;;;;;;7.55;69.42;97839.84;4303132;33;33862;-87
2024/04/17 01:57:47;;;;;;;8.82;4.30;;;;;;;7.55;69.51;97842.44;4304360;33;34547;-87
2024/04/17 02:00:14;;;;;;;6.65;4.10;;;;;;;7.64;68.71;97848.47;4303162;33;32760;-88
2024/04/17 02:02:41;;;;;;;6.75;4.28;;;;;;;7.60;69.08;97855.34;4303063;33;33561;-88
2024/04/17 02:05:08;;;;;;;6.90;4.37;;;;;;;7.41;69.71;97851.81;4302779;33;34545;-88
2024/04/17 02:07:35;;;;;;;6.12;4.32;;;;;;;7.66;68.65;97852.78;4302766;33;33900;-88
2024/04/17 02:10:02;;;;;;;5.90;4.30;;;;;;;7.18;70.19;97854.31;4302430;33;34380;-88
2024/04/17 02:12:29;;;;;;;7.90;4.28;;;;;;;7.56;68.73;97858.75;4310276;33;33801;-87
2024/04/17 02:14:55;;;;;;;5.28;3.83;;;;;;;7.59;68.84;97869.09;4311449;33;34288;-86
2024/04/17 02:17:22;;;;;;;7.43;4.25;;;;;;;7.59;68.56;97870.81;4309005;33;34890;-88
2024/04/17 02:19:48;;;;;;;5.60;3.85;;;;;;;7.86;67.33;97859.72;4314703;33;33243;-87
2024/04/17 02:22:15;;;;;;;9.30;4.40;;;;;;;7.80;67.42;97868.28;4315435;33;33441;-88
2024/04/17 02:24:41;;;;;;;6.22;4.18;;;;;;;7.63;68.19;97872.56;4316367;33;33844;-86
2024/04/17 02:27:09;;;;;;;7.40;4.65;;;;;;;7.70;67.62;97870.00;4316915;33;33827;-87
2024/04/17 02:29:35;;;;;;;8.20;4.25;;;;;;;7.45;68.60;97875.91;4317182;33;33237;-88
2024/04/17 02:32:02;;;;;;;6.47;4.37;;;;;;;7.37;69.35;97867.28;4316372;33;34566;-89
2024/04/17 02:34:30;;;;;;;7.55;4.85;;;;;;;7.49;68.76;97885.38;4316555;33;34985;-88
2024/04/17 02:36:57;;;;;;;6.57;4.55;;;;;;;7.72;67.86;97888.91;4317018;33;33466;-88
2024/04/17 02:39:23;;;;;;;8.63;4.90;;;;;;;7.52;68.62;97885.41;4316850;33;33668;-88
2024/04/17 02:41:51;;;;;;;7.12;5.20;;;;;;;7.59;68.93;97887.16;4316192;33;33837;-87
2024/04/17 02:44:18;;;;;;;6.00;4.50;;;;;;;7.59;68.67;97887.16;4315246;33;34778;-87
2024/04/17 02:46:46;;;;;;;10.05;5.00;;;;;;;7.90;67.40;97874.34;4302287;33;35035;-88
2024/04/17 02:49:12;;;;;;;8.00;4.93;;;;;;;7.66;68.09;97877.72;4302170;33;34720;-89
2024/04/17 02:51:38;;;;;;;7.72;4.55;;;;;;;7.73;68.30;97888.06;4302497;33;34777;-88
2024/04/17 02:54:05;;;;;;;7.03;4.72;;;;;;;7.76;68.13;97880.31;4311075;33;35192;-88
2024/04/17 02:56:32;;;;;;;8.27;4.47;;;;;;;7.98;67.46;97870.91;4306212;33;33690;-88
2024/04/17 02:58:58;;;;;;;6.68;4.35;;;;;;;7.93;67.52;97870.06;4302357;33;33459;-87
2024/04/17 03:01:25;;;;;;;8.45;4.50;;;;;;;8.05;67.33;97876.97;4305882;33;34823;-88
2024/04/17 03:03:52;;;;;;;5.93;4.30;;;;;;;8.28;66.19;97874.41;4317037;33;35216;-88
2024/04/17 03:06:18;;;;;;;7.47;4.12;;;;;;;7.84;67.39;97874.31;4302834;33;34035;-87
2024/04/17 03:08:48;;;;;;;9.95;3.92;;;;;;;8.17;66.63;97866.66;4302369;33;33344;-87
2024/04/17 03:11:14;;;;;;;7.32;4.55;;;;;;;8.26;66.66;97856.34;4304476;33;34766;-88
2024/04/17 03:13:42;;;;;;;7.97;4.18;;;;;;;8.13;66.66;97859.75;4316597;33;34044;-87
2024/04/17 03:16:09;;;;;;;6.82;4.03;;;;;;;8.26;66.17;97848.62;4315027;33;34081;-87
2024/04/17 03:18:35;;;;;;;8.48;3.95;;;;;;;8.20;66.26;97840.84;4303580;33;33291;-87
2024/04/17 03:21:02;;;;;;;6.45;3.80;;;;;;;8.22;66.33;97844.31;4302414;33;33946;-88
2024/04/17 03:23:29;;;;;;;7.18;3.90;;;;;;;8.24;66.38;97840.00;4302804;33;34398;-86
2024/04/17 03:25:57;;;;;;;6.72;4.20;;;;;;;8.16;66.24;97833.09;4303037;33;33761;-88
2024/04/17 03:28:25;;;;;;;6.47;3.70;;;;;;;8.25;66.10;97822.78;4301926;33;34311;-88
2024/04/17 03:30:52;;;;;;;4.70;3.40;;;;;;;8.10;66.15;97827.94;4302166;33;34027;-88
2024/04/17 03:33:18;;;;;;;6.68;3.97;;;;;;;8.25;65.79;97826.22;4302098;33;34128;-88
2024/04/17 03:35:58;;;;;;;5.85;3.78;;;;;;;8.09;66.43;97827.06;4309848;33;34306;-87
2024/04/17 03:38:25;;;;;;;8.15;3.92;;;;;;;8.09;66.38;97833.97;4289122;33;34405;-86
2024/04/17 03:40:53;;;;;;;6.62;4.10;;;;;;;8.23;65.90;97827.94;4288956;33;33854;-87
2024/04/17 03:43:20;;;;;;;5.45;3.33;;;;;;;8.24;65.97;97821.06;4288705;33;34082;-87
2024/04/17 03:45:46;;;;;;;6.05;3.53;;;;;;;8.37;65.54;97827.06;4309547;33;34094;-87
2024/04/17 03:48:13;;;;;;;6.18;3.78;;;;;;;8.26;65.64;97835.69;4303293;33;34419;-87
2024/04/17 03:50:40;;;;;;;5.82;3.92;;;;;;;8.40;64.82;97840.03;4316621;33;33893;-88
2024/04/17 03:53:06;;;;;;;5.47;3.45;;;;;;;8.13;65.53;97831.38;4315998;33;34426;-87
2024/04/17 03:55:33;;;;;;;6.35;3.50;;;;;;;8.08;65.56;97835.69;4302144;33;35031;-86
2024/04/17 03:57:59;;;;;;;5.60;3.37;;;;;;;8.04;65.49;97836.53;4302154;33;33829;-87
2024/04/17 04:00:26;;;;;;;6.25;3.55;;;;;;;8.21;65.11;97831.38;4301846;33;34083;-88
2024/04/17 04:02:53;;;;;;;5.78;3.35;;;;;;;8.17;64.68;97840.84;4301898;33;34144;-88
2024/04/17 04:05:19;;;;;;;4.97;3.53;;;;;;;8.17;64.80;97829.66;4306555;33;34325;-87
2024/04/17 04:07:46;;;;;;;6.00;3.75;;;;;;;8.14;65.01;97837.37;4316393;33;33353;-85
2024/04/17 04:10:12;;;;;;;6.03;3.50;;;;;;;8.01;65.13;97845.13;4315456;33;33911;-86
2024/04/17 04:12:39;;;;;;;6.60;3.50;;;;;;;8.29;64.49;97848.59;4316747;33;34394;-86
2024/04/17 04:15:06;;;;;;;6.65;3.33;;;;;;;8.27;64.69;97852.91;4313361;33;34979;-86
2024/04/17 04:17:33;;;;;;;6.95;3.85;;;;;;;8.34;64.38;97858.09;4312479;33;33814;-87
2024/04/17 04:20:00;;;;;;;6.43;3.78;;;;;;;8.33;64.58;97856.34;4302228;33;33935;-85
2024/04/17 04:22:26;;;;;;;5.87;3.70;;;;;;;8.25;65.05;97864.94;4314776;33;34855;-87
2024/04/17 04:24:53;;;;;;;6.00;3.85;;;;;;;8.40;64.88;97864.12;4301904;33;33977;-85
2024/04/17 04:27:19;;;;;;;7.22;4.53;;;;;;;8.37;65.17;97881.31;4303331;33;32757;-86
2024/04/17 04:29:46;;;;;;;6.03;4.18;;;;;;;8.31;65.72;97886.47;4312100;33;34742;-85
2024/04/17 04:32:13;;;;;;;8.60;4.60;;;;;;;8.53;65.46;97881.38;4308945;33;34164;-86
2024/04/17 04:34:39;;;;;;;7.00;4.43;;;;;;;8.53;65.60;97880.50;4330939;33;35004;-86
2024/04/17 04:37:06;;;;;;;7.22;5.20;;;;;;;8.41;65.73;97876.19;4310328;33;34499;-87
2024/04/17 04:39:32;;;;;;;7.07;5.60;;;;;;;8.24;66.23;97872.69;4301379;33;34049;-87
2024/04/17 04:41:59;;;;;;;7.70;4.65;;;;;;;8.57;65.86;97869.31;4301432;33;34048;-88
2024/04/17 04:44:25;;;;;;;6.70;4.50;;;;;;;8.29;66.23;97868.38;4302854;33;33942;-87
2024/04/17 04:46:54;;;;;;;7.68;5.00;;;;;;;8.39;66.31;97866.72;4301571;33;34507;-88
2024/04/17 04:49:20;;;;;;;6.20;4.18;;;;;;;8.48;66.46;97867.56;4301335;33;34028;-89
2024/04/17 04:51:47;;;;;;;7.43;5.40;;;;;;;8.57;65.94;97869.31;4301985;33;34138;-87
2024/04/17 04:54:13;;;;;;;7.43;5.10;;;;;;;8.70;65.90;97872.75;4311461;33;34119;-87
2024/04/17 04:56:40;;;;;;;8.02;5.22;;;;;;;8.30;66.28;97877.88;4311320;33;33647;-87
2024/04/17 04:59:07;;;;;;;8.18;5.15;;;;;;;8.62;65.55;97882.22;4308646;33;33950;-86
2024/04/17 05:01:33;;;;;;;7.93;5.30;;;;;;;8.75;65.55;97883.91;4303411;33;34289;-88
2024/04/17 05:04:00;;;;;;;7.32;4.70;;;;;;;8.86;65.51;97879.59;4306980;33;34720;-86
2024/04/17 05:06:27;;;;;;;9.18;5.30;;;;;;;8.89;65.58;97876.16;4312291;33;34389;-86
2024/04/17 05:08:54;;;;;;;8.30;4.43;;;;;;;8.81;65.79;97885.66;4307895;33;32651;-87
2024/04/17 05:11:21;;;;;;;7.20;4.82;;;;;;;8.84;65.82;97888.25;4310839;33;34813;-89
2024/04/17 05:13:47;;;;;;;7.10;4.45;;;;;;;8.87;65.17;97886.53;4302689;33;34319;-87
2024/04/17 05:16:14;;;;;;;6.90;4.43;;;;;;;8.67;65.33;97883.94;4315387;33;33388;-89
2024/04/17 05:18:40;;;;;;;8.25;4.25;;;;;;;8.72;65.47;97886.53;4320440;33;33682;-89
2024/04/17 05:21:07;;;;;;;10.60;6.40;;;;;;;9.05;65.08;97875.28;4320074;33;34201;-88
2024/04/17 05:23:33;;;;;;;8.90;4.30;;;;;;;9.10;65.06;97872.69;4320281;33;34121;-88
2024/04/17 05:26:00;;;;;;;5.57;3.75;;;;;;;8.98;65.30;97874.44;4320528;33;33818;-89
2024/04/17 05:28:27;;;;;;;6.68;3.60;;;;;;;8.75;65.94;97876.16;4320703;33;34502;-88
2024/04/17 05:30:59;;;;;;;5.85;3.60;;;;;;;8.86;65.46;97876.16;4320685;33;33751;-89
2024/04/17 05:33:25;;;;;;;5.43;3.30;;;;;;;9.17;64.95;97854.59;4320499;33;34952;-88
2024/04/17 05:35:52;;;;;;;6.55;3.35;;;;;;;9.30;65.18;97875.22;4320678;33;33203;-88
2024/04/17 05:38:19;;;;;;;4.68;2.70;;;;;;;9.72;64.88;97882.81;4306922;33;33095;-89
2024/04/17 05:40:46;;;;;;;4.93;2.70;;;;;;;9.86;63.49;97881.91;4306901;33;34834;-89
2024/04/17 05:43:16;;;;;;;5.45;2.72;;;;;;;10.15;61.84;97885.19;4320534;33;35015;-88
2024/04/17 05:45:46;;;;;;;5.05;2.67;;;;;;;9.81;62.00;97894.00;4307683;33;33331;-88
2024/04/17 05:48:13;;;;;;;6.03;3.10;;;;;;;9.29;63.58;97884.72;4320484;33;33468;-89
2024/04/17 05:50:41;;;;;;;6.40;3.12;;;;;;;9.22;63.63;97886.44;4306900;33;34554;-88
2024/04/17 05:53:08;;;;;;;5.60;2.90;;;;;;;9.11;64.05;97889.91;4320230;33;33769;-89
2024/04/17 05:55:38;;;;;;;4.70;3.05;;;;;;;9.21;63.96;97895.06;4320125;33;33536;-89
2024/04/17 05:58:06;;;;;;;5.10;3.05;;;;;;;9.22;63.93;97891.63;4320383;33;33652;-88
2024/04/17 06:00:36;;;;;;;5.32;2.72;;;;;;;8.72;65.73;97891.69;4320096;33;34377;-88
2024/04/17 06:03:03;;;;;;;5.87;3.30;;;;;;;8.59;66.36;97889.97;4306923;33;33913;-89
2024/04/17 06:05:29;;;;;;;6.93;3.42;;;;;;;8.19;67.97;97895.06;4320724;33;33238;-89
2024/04/17 06:07:56;;;;;;;5.70;3.92;;;;;;;8.02;68.19;97895.03;4320012;33;34176;-89
2024/04/17 06:10:22;;;;;;;5.25;2.85;;;;;;;8.32;67.85;97903.69;4320136;33;35113;-89
2024/04/17 06:12:49;;;;;;;6.10;3.17;;;;;;;8.81;65.48;97903.75;4320195;33;34868;-89
2024/04/17 06:15:16;;;;;;;5.12;3.20;;;;;;;8.80;65.96;97904.63;4319969;33;34116;-89
2024/04/17 06:17:42;;;;;;;6.35;3.10;;;;;;;8.50;66.26;97908.91;4306934;33;33779;-89
2024/04/17 06:20:09;;;;;;;5.25;3.35;;;;;;;8.45;66.47;97918.38;4320114;33;33720;-89
2024/04/17 06:22:35;;;;;;;4.95;2.85;;;;;;;8.29;67.48;97922.59;4319894;33;35010;-89
2024/04/17 06:25:03;;;;;;;5.93;3.55;;;;;;;8.71;66.20;97910.63;4320079;33;33843;-89
2024/04/17 06:27:29;;;;;;;6.37;3.60;;;;;;;9.00;65.45;97911.47;4317998;33;34149;-89
2024/04/17 06:29:56;;;;;;;6.25;3.55;;;;;;;8.46;67.69;97908.03;4317086;33;33802;-89
2024/04/17 06:32:22;;;;;;;5.82;3.58;;;;;;;8.33;68.66;97903.69;4317479;33;34022;-89
2024/04/17 06:34:49;;;;;;;5.90;3.83;;;;;;;8.26;68.69;97908.00;4317332;33;33710;-88
2024/04/17 06:37:15;;;;;;;5.93;3.60;;;;;;;8.74;67.15;97901.16;4317120;33;34010;-89
2024/04/17 06:39:42;;;;;;;4.93;3.20;;;;;;;8.37;68.29;97914.88;4317185;33;34163;-89
2024/04/17 06:42:09;;;;;;;5.85;3.40;;;;;;;8.80;66.21;97912.37;4317251;33;34658;-88
2024/04/17 06:44:35;;;;;;;7.05;3.65;;;;;;;8.52;67.78;97900.31;4316952;33;33705;-88
2024/04/17 06:47:02;;;;;;;5.28;3.35;;;;;;;8.80;67.02;97900.31;4317460;33;34685;-89
2024/04/17 06:49:28;;;;;;;6.37;3.55;;;;;;;8.10;68.25;97901.06;4316960;33;34295;-89
2024/04/17 06:51:55;;;;;;;5.70;3.90;;;;;;;8.63;66.71;97895.13;4317232;33;33750;-88
2024/04/17 06:54:21;;;;;;;5.65;3.60;;;;;;;8.89;66.38;97904.59;4317124;33;33194;-89
2024/04/17 06:56:48;;;;;;;5.50;3.20;;;;;;;9.22;65.45;97894.19;4316989;33;35215;-89
2024/04/17 06:59:14;;;;;;;5.28;3.10;;;;;;;9.30;65.11;97906.25;4317220;33;33453;-89
2024/04/17 07:01:41;;;;;;;6.82;3.42;;;;;;;8.93;66.59;97901.16;4316749;33;34147;-89
2024/04/17 07:04:07;;;;;;;5.22;3.65;;;;;;;9.08;65.14;97890.78;4317113;33;33950;-89
2024/04/17 07:06:34;;;;;;;6.65;3.22;;;;;;;8.93;66.61;97890.81;4316820;33;33022;-89
2024/04/17 07:09:01;;;;;;;6.80;3.62;;;;;;;8.81;67.46;97885.66;4316849;33;34217;-89
2024/04/17 07:11:27;;;;;;;7.25;3.42;;;;;;;9.00;66.92;97871.84;4316746;33;35033;-89
2024/04/17 07:13:54;;;;;;;5.25;3.40;;;;;;;8.86;66.70;97878.75;4316818;33;34482;-89
2024/04/17 07:16:21;;;;;;;6.70;3.95;;;;;;;8.77;67.42;97875.31;4316628;33;33857;-89
2024/04/17 07:18:48;;;;;;;5.80;3.45;;;;;;;8.80;67.70;97868.44;4316828;33;34223;-90
2024/04/17 07:21:14;;;;;;;5.20;3.12;;;;;;;8.85;67.15;97862.38;4316502;33;35014;-91
2024/04/17 07:23:43;;;;;;;6.05;3.20;;;;;;;9.28;66.61;97864.91;4316870;33;34353;-89
2024/04/17 07:26:10;;;;;;;5.68;3.47;;;;;;;9.68;64.38;97868.19;4303656;33;34668;-89
2024/04/17 07:28:37;;;;;;;6.28;3.47;;;;;;;9.30;66.79;97868.31;4316643;33;35045;-89
2024/04/17 07:31:04;;;;;;;6.40;3.92;;;;;;;9.63;65.80;97880.28;4316513;33;34312;-89
2024/04/17 07:33:30;;;;;;;6.87;3.85;;;;;;;9.21;68.15;97863.19;4316510;33;33835;-89
2024/04/17 07:35:58;;;;;;;6.85;3.53;;;;;;;9.74;66.07;97869.88;4316696;33;34195;-88
2024/04/17 07:38:25;;;;;;;5.45;3.58;;;;;;;9.78;65.25;97858.66;4316111;33;35071;-89
2024/04/17 07:41:00;;;;;;;6.00;3.33;;;;;;;9.98;65.17;97861.13;4316508;33;34025;-90
2024/04/17 07:43:33;;;;;;;7.60;3.50;;;;;;;10.34;64.01;97859.19;4303437;33;32138;-89
2024/04/17 07:46:00;;;;;;;4.55;2.95;;;;;;;9.70;66.13;97850.94;4303803;33;34621;-89
2024/04/17 07:48:27;;;;;;;6.85;2.87;;;;;;;10.16;65.13;97850.66;4303321;33;35033;-89
2024/04/17 07:50:54;;;;;;;4.82;2.80;;;;;;;10.73;63.77;97846.78;4316286;33;34047;-89
2024/04/17 07:53:20;;;;;;;4.85;2.90;;;;;;;9.91;64.70;97856.84;4316797;33;34540;-89
2024/04/17 07:55:48;;;;;;;5.75;2.80;;;;;;;9.43;66.09;97854.50;4316822;33;33536;-89
2024/04/17 07:58:14;;;;;;;3.90;2.50;;;;;;;9.84;65.16;97848.25;4316740;33;35083;-88
2024/04/17 08:00:41;;;;;;;4.80;2.75;;;;;;;10.07;63.30;97852.44;4316640;33;33917;-88
2024/04/17 08:03:09;;;;;;;4.50;2.72;;;;;;;10.40;63.51;97847.06;4316482;33;33758;-89
2024/04/17 08:05:36;;;;;;;5.25;2.55;;;;;;;10.74;63.24;97844.19;4316583;33;33942;-89
2024/04/17 08:08:02;;;;;;;4.60;2.40;;;;;;;10.93;62.07;97842.28;4316573;33;33578;-89
2024/04/17 08:10:29;;;;;;;5.80;2.60;;;;;;;11.05;60.92;97844.72;4316552;33;33811;-89
2024/04/17 08:13:07;;;;;;;4.10;2.40;;;;;;;10.53;62.20;97840.06;4316642;33;33849;-90
2024/04/17 08:15:34;;;;;;;5.87;3.00;;;;;;;10.76;61.17;97833.78;4316528;33;33747;-89
2024/04/17 08:18:01;;;;;;;4.35;2.67;;;;;;;10.39;63.21;97837.56;4316204;33;34170;-89
2024/04/17 08:20:29;;;;;;;4.32;2.40;;;;;;;10.45;61.74;97839.22;4316373;33;35021;-89
2024/04/17 08:22:56;;;;;;;7.65;2.30;;;;;;;11.13;60.45;97840.31;4316637;33;33496;-90
2024/04/17 08:25:22;;;;;;;5.18;2.20;;;;;;;11.22;58.33;97833.34;4316309;33;34053;-88
2024/04/17 08:27:49;;;;;;;4.05;2.40;;;;;;;11.26;59.22;97837.63;4316376;33;33936;-89
2024/04/17 08:30:15;;;;;;;5.22;2.70;;;;;;;10.98;59.63;97837.88;4316757;33;33854;-90
2024/04/17 08:32:43;;;;;;;4.50;2.40;;;;;;;11.02;58.57;97833.53;4316295;33;33551;-89
2024/04/17 08:35:09;;;;;;;6.37;3.00;;;;;;;11.14;60.86;97833.44;4316179;33;35329;-89
2024/04/17 08:37:36;;;;;;;5.68;2.80;;;;;;;10.91;59.18;97836.22;4316271;33;33973;-90
2024/04/17 08:40:04;;;;;;;4.15;2.53;;;;;;;11.00;59.09;97837.88;4303038;33;33996;-90
2024/04/17 08:42:35;;;;;;;5.57;3.03;;;;;;;11.08;60.29;97834.34;4316053;33;34157;-89
2024/04/17 08:45:09;;;;;;;4.97;2.55;;;;;;;10.88;60.78;97836.28;4302994;33;34903;-89
2024/04/17 08:47:41;;;;;;;4.93;2.62;;;;;;;11.11;59.04;97829.13;4315949;33;33981;-89
2024/04/17 08:50:09;;;;;;;4.57;2.75;;;;;;;11.04;58.88;97835.25;4302154;33;34050;-89
2024/04/17 08:52:36;;;;;;;6.28;2.72;;;;;;;11.21;60.20;97832.44;4302622;33;34558;-90
2024/04/17 08:55:04;;;;;;;4.50;2.53;;;;;;;11.04;58.47;97827.47;4302717;33;34683;-90
2024/04/17 08:57:31;;;;;;;5.07;2.60;;;;;;;10.45;60.03;97821.09;4316556;33;35588;-87
2024/04/17 08:59:57;;;;;;;5.70;2.53;;;;;;;10.20;60.58;97816.09;4316047;33;34195;-89
2024/04/17 09:02:26;;;;;;;4.75;2.70;;;;;;;10.48;59.83;97824.53;4315977;33;33455;-89
2024/04/17 09:04:54;;;;;;;5.43;2.95;;;;;;;10.59;60.82;97814.06;4315947;33;33663;-89
2024/04/17 09:07:20;;;;;;;3.75;2.12;;;;;;;10.50;60.81;97803.81;4316106;33;34067;-89
2024/04/17 09:09:47;;;;;;;4.43;2.20;;;;;;;11.38;58.60;97808.94;4302854;33;34140;-88
2024/04/17 09:12:14;;;;;;;6.00;2.45;;;;;;;11.20;58.16;97803.06;4302719;33;34101;-88
2024/04/17 09:14:40;;;;;;;4.47;2.62;;;;;;;11.22;60.25;97805.66;4315911;33;34768;-88
2024/04/17 09:17:07;;;;;;;3.37;2.12;;;;;;;11.66;58.32;97799.03;4315719;33;34146;-89
2024/04/17 09:19:34;;;;;;;3.95;2.25;;;;;;;11.89;56.37;97799.63;4315857;33;34282;-88
2024/04/17 09:22:00;;;;;;;4.50;2.25;;;;;;;12.14;54.78;97792.31;4302532;33;33146;-89
2024/04/17 09:24:27;;;;;;;5.22;2.65;;;;;;;12.15;54.86;97791.41;4315720;33;33799;-89
2024/04/17 09:26:54;;;;;;;3.92;2.47;;;;;;;11.78;56.55;97810.97;4315832;33;34174;-89
2024/04/17 09:29:20;;;;;;;4.95;2.40;;;;;;;11.98;57.32;97798.63;4315809;33;35097;-89
2024/04/17 09:31:47;;;;;;;4.70;2.47;;;;;;;12.47;54.10;97797.00;4315717;33;33741;-89
2024/04/17 09:34:18;;;;;;;4.72;2.30;;;;;;;12.27;53.63;97810.28;4315529;33;34058;-91
2024/04/17 09:36:45;;;;;;;4.07;2.28;;;;;;;12.15;53.56;97801.81;4302703;33;33929;-88
2024/04/17 09:39:11;;;;;;;4.35;2.37;;;;;;;12.39;53.53;97792.78;4302379;33;35131;-88
2024/04/17 09:41:41;;;;;;;3.90;2.33;;;;;;;12.82;53.87;97783.37;4315183;33;33462;-90
2024/04/17 09:44:27;;;;;;;3.40;2.03;;;;;;;12.74;51.59;97785.25;4303357;33;33474;-91
2024/04/17 09:46:56;;;;;;;4.32;2.40;;;;;;;11.85;53.17;97789.28;4314316;33;34119;-88
2024/04/17 09:49:26;;;;;;;3.70;2.03;;;;;;;12.25;54.00;97791.28;4315248;33;34189;-89
2024/04/17 09:51:59;;;;;;;3.75;1.67;;;;;;;12.62;52.55;97795.00;4315473;33;34392;-88
2024/04/17 09:54:26;;;;;;;4.62;1.92;;;;;;;13.03;50.66;97782.97;4315623;33;33907;-88
2024/04/17 09:56:53;;;;;;;4.95;2.10;;;;;;;13.21;51.19;97799.09;4302443;33;33803;-89
2024/04/17 09:59:20;;;;;;;2.72;1.70;;;;;;;12.82;51.10;97798.97;4315267;33;34322;-88
2024/04/17 10:01:47;;;;;;;4.55;1.80;;;;;;;12.95;50.76;97791.78;4315513;33;34619;-90
2024/04/17 10:04:14;;;;;;;2.80;1.65;;;;;;;12.62;50.66;97791.53;4304292;33;32234;-89
2024/04/17 10:06:42;;;;;;;3.58;1.65;;;;;;;12.52;50.87;97795.16;4304163;33;35085;-89
2024/04/17 10:09:11;;;;;;;2.90;1.48;;;;;;;12.80;50.98;97785.13;4317616;33;34166;-90
2024/04/17 10:11:39;;;;;;;2.78;1.37;;;;;;;12.89;52.01;97783.22;4317288;33;33780;-89
2024/04/17 10:14:12;;;;;;;4.03;1.52;;;;;;;12.51;51.90;97789.13;4303932;33;34003;-89
2024/04/17 10:16:39;;;;;;;1.87;1.20;;;;;;;12.97;49.06;97790.87;4317348;33;33933;-89
2024/04/17 10:19:06;;;;;;;2.53;1.60;;;;;;;12.99;47.73;97783.91;4304671;33;35038;-88
2024/04/17 10:21:36;;;;;;;3.83;1.80;;;;;;;12.79;47.92;97791.22;4303826;33;33682;-89
2024/04/17 10:24:07;;;;;;;2.83;1.85;;;;;;;12.47;50.36;97797.00;4317225;33;34801;-89
2024/04/17 10:26:46;;;;;;;3.97;1.95;;;;;;;11.84;52.28;97800.56;4317206;33;34937;-89
2024/04/17 10:29:22;;;;;;;4.55;2.37;;;;;;;12.41;52.58;97793.59;4317072;33;33909;-89
2024/04/17 10:32:00;;;;;;;;;;;;;;;12.27;52.60;97794.69;4317540;33;34310;-89
2024/04/17 10:34:30;;;;;;;2.72;1.75;;;;;;;12.46;51.90;97785.72;4317005;33;34251;-88
2024/04/17 10:37:02;;;;;;;2.90;1.95;;;;;;;12.78;50.85;97784.31;4303972;33;33794;-89
2024/04/17 10:39:29;;;;;;;4.97;1.83;;;;;;;12.27;50.89;97779.12;4316922;33;34826;-87
2024/04/17 10:41:59;;;;;;;4.87;2.10;;;;;;;12.90;49.31;97786.69;4316948;33;34423;-89
2024/04/17 10:44:26;;;;;;;4.47;2.00;;;;;;;13.46;48.94;97778.69;4304170;33;33829;-89
2024/04/17 10:47:03;;;;;;;5.82;2.47;;;;;;;13.31;48.35;97779.84;4317104;33;34124;-89
2024/04/17 10:49:30;;;;;;;3.83;2.25;;;;;;;12.62;50.68;97779.38;4303859;33;34194;-89
2024/04/17 10:51:57;;;;;;;2.53;1.55;;;;;;;12.98;50.31;97774.38;4304047;33;33693;-89
2024/04/17 10:54:23;;;;;;;3.60;1.62;;;;;;;13.07;48.75;97774.22;4317115;33;34749;-89
2024/04/17 10:56:50;;;;;;;3.70;1.90;;;;;;;13.05;48.98;97770.78;4316922;33;34105;-90
2024/04/17 10:59:17;;;;;;;3.10;1.65;;;;;;;13.61;46.88;97774.00;4317034;33;34864;-87
2024/04/17 11:01:44;;;;;;;4.28;1.90;;;;;;;13.49;46.20;97774.28;4316852;33;34078;-89
2024/04/17 11:04:11;;;;;;;2.85;1.50;;;;;;;13.26;47.68;97768.66;4317112;33;34295;-90
2024/04/17 11:06:38;;;;;;;2.70;1.50;;;;;;;13.44;47.10;97760.47;4317137;33;34768;-89
2024/04/17 11:09:06;;;;;;;2.70;1.40;;;;;;;13.51;47.36;97769.88;4316709;33;33989;-88
2024/04/17 11:11:32;;;;;;;3.10;1.45;;;;;;;13.10;46.74;97768.94;4303480;33;34804;-89
2024/04/17 11:13:59;;;;;;;2.12;1.40;;;;;;;13.52;45.39;97771.56;4301998;33;33950;-91
2024/04/17 11:16:26;;;;;;;2.65;1.60;;;;;;;12.94;47.40;97766.69;4315612;33;35110;-88
2024/04/17 11:18:52;;;;;;;1.80;1.30;;;;;;;12.86;47.22;97756.41;4316440;33;33998;-89
2024/04/17 11:21:23;;;;;;;2.95;1.60;;;;;;;12.88;48.49;97759.87;4303399;33;34468;-91
2024/04/17 11:23:50;;;;;;;3.22;2.05;;;;;;;13.19;46.88;97756.66;4303692;33;33790;-89
2024/04/17 11:26:16;;;;;;;5.12;2.00;;;;;;;13.43;47.19;97750.09;4316852;33;34320;-89
2024/04/17 11:28:44;;;;;;;3.62;2.20;;;;;;;13.31;48.06;97753.81;4316953;33;35052;-89
2024/04/17 11:31:11;;;;;;;5.28;2.45;;;;;;;13.26;49.88;97753.94;4304022;33;34346;-89
2024/04/17 11:33:39;;;;;;;3.15;2.12;;;;;;;13.58;49.17;97760.19;4316887;33;34017;-89
2024/04/17 11:36:14;;;;;;;7.15;2.90;;;;;;;13.81;47.85;97755.31;4303503;33;33830;-90
2024/04/17 11:38:44;;;;;;;7.20;2.67;;;;;;;14.10;48.22;97748.59;4304184;33;34386;-89